Time;durP1;ratioP1;P1;durP2;ratioP2;P2;SDS_P1;SDS_P2;PMS_P1;PMS_P2;Temp;Humidity;BMP_temperature;BMP_pressure;BME280_temperature;BME280_humidity;BME280_pressure;Samples;Min_cycle;Max_cycle;Signal;HPM_P1;HPM_P2
2021/07/02 00:00:18;;;;;;;0.50;0.43;;;17.00;86.60;;;;;;4972961;28;20031;-74
2021/07/02 00:02:44;;;;;;;0.90;0.50;;;16.90;87.30;;;;;;4972705;28;20121;-74
2021/07/02 00:05:11;;;;;;;0.50;0.50;;;16.80;88.20;;;;;;4973180;28;20105;-74
2021/07/02 00:07:37;;;;;;;0.32;0.30;;;16.80;88.60;;;;;;4972880;28;20066;-74
2021/07/02 00:10:05;;;;;;;0.52;0.52;;;16.80;89.00;;;;;;4973052;28;20121;-74
2021/07/02 00:12:30;;;;;;;0.88;0.60;;;16.70;89.40;;;;;;4972805;28;20022;-73
2021/07/02 00:14:56;;;;;;;0.50;0.50;;;16.70;89.60;;;;;;4973014;28;20073;-74
2021/07/02 00:17:22;;;;;;;0.90;0.60;;;16.70;90.00;;;;;;4973061;28;20378;-74
2021/07/02 00:19:47;;;;;;;0.47;0.47;;;16.60;90.40;;;;;;4976114;28;20038;-74
2021/07/02 00:22:13;;;;;;;1.38;0.60;;;16.60;90.60;;;;;;4976452;28;20026;-74
2021/07/02 00:24:39;;;;;;;0.80;0.55;;;16.60;90.80;;;;;;4976621;28;20035;-74
2021/07/02 00:27:05;;;;;;;1.38;0.50;;;16.60;91.00;;;;;;4976740;28;20054;-74
2021/07/02 00:29:31;;;;;;;0.50;0.50;;;16.50;91.30;;;;;;4976621;28;20066;-73
2021/07/02 00:31:57;;;;;;;2.38;0.60;;;16.50;91.60;;;;;;4976477;28;20493;-73
2021/07/02 00:34:22;;;;;;;0.40;0.40;;;16.50;91.70;;;;;;4976523;28;20491;-73
2021/07/02 00:36:48;;;;;;;0.82;0.60;;;16.40;91.90;;;;;;4976189;28;20019;-73
2021/07/02 00:39:14;;;;;;;2.70;0.80;;;16.40;92.00;;;;;;4976137;28;20111;-75
2021/07/02 00:41:40;;;;;;;1.02;0.70;;;16.40;92.30;;;;;;4976080;28;20031;-75
2021/07/02 00:44:06;;;;;;;3.03;0.70;;;16.40;92.50;;;;;;4976031;28;20039;-75
2021/07/02 00:46:32;;;;;;;0.93;0.63;;;16.30;92.60;;;;;;4976096;28;20062;-75
2021/07/02 00:48:58;;;;;;;0.70;0.55;;;16.30;92.90;;;;;;4975929;28;20058;-75
2021/07/02 00:51:27;;;;;;;0.80;0.60;;;16.30;93.10;;;;;;4976251;28;20049;-75
2021/07/02 00:53:53;;;;;;;0.88;0.50;;;16.30;93.40;;;;;;4975728;28;20082;-76
2021/07/02 00:56:20;;;;;;;0.95;0.68;;;16.30;93.50;;;;;;4976317;28;20071;-76
2021/07/02 00:58:46;;;;;;;1.85;0.70;;;16.20;93.70;;;;;;4975752;28;20458;-76
2021/07/02 01:01:18;;;;;;;2.10;0.68;;;16.20;93.80;;;;;;4975826;28;20114;-75
2021/07/02 01:03:45;;;;;;;1.00;0.60;;;16.20;94.10;;;;;;4975864;28;20046;-74
2021/07/02 01:06:12;;;;;;;0.65;0.63;;;16.20;94.30;;;;;;4975579;28;20023;-75
2021/07/02 01:08:40;;;;;;;1.00;0.60;;;16.20;94.60;;;;;;4975873;28;20089;-74
2021/07/02 01:11:06;;;;;;;0.70;0.52;;;16.10;94.70;;;;;;4975440;28;20033;-74
2021/07/02 01:13:32;;;;;;;0.52;0.52;;;16.10;94.80;;;;;;4975770;28;20053;-75
2021/07/02 01:15:58;;;;;;;5.78;0.65;;;16.10;95.00;;;;;;4975702;28;20049;-75
2021/07/02 01:52:03;;;;;;;2.65;0.77;;;16.30;95.10;;;;;;5945652;23;20006;-73
2021/07/02 01:54:29;;;;;;;2.97;0.70;;;16.30;95.50;;;;;;5011913;28;20046;-73
2021/07/02 01:56:55;;;;;;;2.75;0.70;;;16.30;95.60;;;;;;5013553;28;20040;-73
2021/07/02 01:59:21;;;;;;;2.40;0.60;;;16.30;95.40;;;;;;5013651;28;20032;-74
2021/07/02 02:01:48;;;;;;;1.38;0.70;;;16.30;95.90;;;;;;5013754;28;20117;-73
2021/07/02 02:04:14;;;;;;;1.05;0.68;;;16.30;96.00;;;;;;5013605;28;20452;-74
2021/07/02 02:06:41;;;;;;;0.68;0.60;;;16.30;96.10;;;;;;5013625;28;20029;-74
2021/07/02 02:09:07;;;;;;;0.60;0.60;;;16.30;96.40;;;;;;5013781;28;20088;-75
2021/07/02 02:11:33;;;;;;;0.70;0.70;;;16.20;96.30;;;;;;5013759;28;20033;-75
2021/07/02 02:14:00;;;;;;;3.67;0.90;;;16.30;96.40;;;;;;5013503;28;20061;-75
2021/07/02 02:16:25;;;;;;;3.55;1.20;;;16.20;96.60;;;;;;5013382;28;20034;-75
2021/07/02 02:18:52;;;;;;;3.58;0.73;;;16.30;96.50;;;;;;5013487;28;20022;-75
2021/07/02 02:21:18;;;;;;;0.93;0.60;;;16.20;96.70;;;;;;5013841;28;20354;-75
2021/07/02 02:23:43;;;;;;;0.60;0.60;;;16.30;96.80;;;;;;5013169;28;20531;-74
2021/07/02 02:26:09;;;;;;;0.75;0.75;;;16.30;96.70;;;;;;5013725;28;20030;-75
2021/07/02 02:28:35;;;;;;;1.75;0.60;;;16.30;96.90;;;;;;5013209;28;20037;-75
2021/07/02 02:31:01;;;;;;;0.55;0.55;;;16.30;96.90;;;;;;5013328;28;20065;-74
2021/07/02 02:33:27;;;;;;;2.70;0.70;;;16.30;97.00;;;;;;5013278;28;20025;-74
2021/07/02 02:35:53;;;;;;;0.63;0.50;;;16.30;97.00;;;;;;5013444;28;20494;-74
2021/07/02 02:38:18;;;;;;;0.50;0.50;;;16.30;97.10;;;;;;5013077;28;20088;-74
2021/07/02 02:40:45;;;;;;;1.10;0.77;;;16.30;97.40;;;;;;5012448;28;20037;-74
2021/07/02 02:43:10;;;;;;;2.00;0.40;;;16.40;97.30;;;;;;5012860;28;20520;-74
2021/07/02 02:45:36;;;;;;;1.35;0.60;;;16.40;97.40;;;;;;5012872;28;20061;-75
2021/07/02 02:48:03;;;;;;;0.60;0.60;;;16.50;97.30;;;;;;5012939;28;20021;-75
2021/07/02 02:50:29;;;;;;;2.65;0.80;;;16.50;97.40;;;;;;5012835;28;20064;-75
2021/07/02 02:52:55;;;;;;;1.25;0.70;;;16.70;97.50;;;;;;5002806;28;20533;-76
2021/07/02 02:55:20;;;;;;;0.65;0.65;;;16.90;97.20;;;;;;4993475;28;20382;-76
2021/07/02 02:57:46;;;;;;;0.63;0.60;;;17.10;96.50;;;;;;4993198;28;20101;-76
2021/07/02 03:00:13;;;;;;;0.70;0.70;;;17.30;95.50;;;;;;4993362;28;20034;-76
2021/07/02 03:02:39;;;;;;;1.52;0.60;;;17.50;95.10;;;;;;4993124;28;20030;-76
2021/07/02 03:05:06;;;;;;;0.80;0.50;;;17.50;94.80;;;;;;4993320;28;20635;-75
2021/07/02 03:07:31;;;;;;;0.95;0.70;;;17.60;94.60;;;;;;4993081;28;20030;-74
2021/07/02 03:09:57;;;;;;;1.90;0.57;;;17.60;94.60;;;;;;4993191;28;20057;-74
2021/07/02 03:12:23;;;;;;;1.35;0.77;;;17.60;94.60;;;;;;4992983;28;20026;-74
2021/07/02 03:14:52;;;;;;;2.47;0.82;;;17.60;94.50;;;;;;4992805;28;20023;-74
2021/07/02 03:17:19;;;;;;;0.82;0.80;;;17.70;94.50;;;;;;4992822;28;20397;-74
2021/07/02 03:19:44;;;;;;;0.90;0.70;;;17.70;94.30;;;;;;4992663;28;20488;-74
2021/07/02 03:22:10;;;;;;;0.70;0.70;;;17.90;94.30;;;;;;4992831;28;20109;-74
2021/07/02 03:24:36;;;;;;;0.63;0.60;;;18.20;94.00;;;;;;4992701;28;20034;-74
2021/07/02 03:27:02;;;;;;;0.82;0.73;;;18.60;92.80;;;;;;4992993;28;20022;-74
2021/07/02 03:29:28;;;;;;;4.40;0.90;;;19.00;91.60;;;;;;4992804;28;20033;-75
2021/07/02 03:31:53;;;;;;;0.88;0.70;;;19.40;90.50;;;;;;4992665;28;20533;-74
2021/07/02 03:34:19;;;;;;;0.82;0.60;;;19.80;89.00;;;;;;4992916;28;20027;-75
2021/07/02 03:36:45;;;;;;;0.73;0.60;;;20.20;86.90;;;;;;4992600;28;20033;-76
2021/07/02 03:39:10;;;;;;;1.13;0.70;;;20.50;83.90;;;;;;4992676;28;20026;-76
2021/07/02 03:41:36;;;;;;;0.90;0.57;;;20.90;82.00;;;;;;4992460;28;20023;-76
2021/07/02 03:44:02;;;;;;;1.45;0.70;;;21.20;79.80;;;;;;4992496;28;20580;-76
2021/07/02 03:46:28;;;;;;;0.50;0.50;;;21.50;78.30;;;;;;4992794;28;20125;-75
2021/07/02 03:48:54;;;;;;;1.27;0.70;;;21.80;76.90;;;;;;4992881;28;20026;-75
2021/07/02 03:51:20;;;;;;;2.17;0.60;;;22.10;74.80;;;;;;4992890;28;20477;-75
2021/07/02 03:53:45;;;;;;;1.48;0.82;;;22.50;72.70;;;;;;4994445;28;20046;-75
2021/07/02 03:56:11;;;;;;;0.65;0.65;;;22.70;71.90;;;;;;4996918;28;20087;-75
2021/07/02 03:58:38;;;;;;;1.67;0.55;;;23.00;70.40;;;;;;4996397;28;20393;-75
2021/07/02 04:01:04;;;;;;;1.95;0.63;;;23.20;69.00;;;;;;4996413;28;20034;-75
2021/07/02 04:03:31;;;;;;;1.15;0.60;;;23.50;68.20;;;;;;4996274;28;20035;-77
2021/07/02 04:05:57;;;;;;;6.65;1.45;;;23.80;67.00;;;;;;4996648;28;20023;-74
2021/07/02 04:08:23;;;;;;;0.73;0.50;;;24.10;66.20;;;;;;4996599;28;20505;-75
2021/07/02 04:10:49;;;;;;;1.30;0.63;;;24.30;64.60;;;;;;4996160;28;20032;-74
2021/07/02 04:13:15;;;;;;;0.55;0.50;;;24.60;63.70;;;;;;4996201;28;20496;-75
2021/07/02 04:15:41;;;;;;;0.70;0.57;;;24.90;62.40;;;;;;4996016;28;20038;-76
2021/07/02 04:18:08;;;;;;;0.50;0.50;;;25.10;61.70;;;;;;4996094;28;20034;-77
2021/07/02 04:20:34;;;;;;;2.95;0.60;;;25.40;60.90;;;;;;4995857;28;20041;-77
2021/07/02 04:23:00;;;;;;;2.92;0.60;;;25.60;60.00;;;;;;4995933;28;20367;-77
2021/07/02 04:25:26;;;;;;;0.80;0.60;;;25.80;59.60;;;;;;4995874;28;20093;-77
2021/07/02 04:27:52;;;;;;;0.73;0.65;;;26.00;59.10;;;;;;4996259;28;20028;-80
2021/07/02 04:30:18;;;;;;;1.08;0.55;;;26.20;58.60;;;;;;4995917;28;20062;-85
2021/07/02 04:32:43;;;;;;;0.50;0.50;;;26.40;58.30;;;;;;4995552;28;20387;-78
2021/07/02 04:35:10;;;;;;;0.90;0.45;;;26.60;57.70;;;;;;4996061;28;20030;-77
2021/07/02 04:37:38;;;;;;;0.88;0.60;;;26.80;57.10;;;;;;4995851;28;20018;-76
2021/07/02 04:40:06;;;;;;;1.40;0.68;;;27.00;56.70;;;;;;4995772;28;20081;-74
2021/07/02 04:42:32;;;;;;;1.23;0.47;;;27.10;56.00;;;;;;4987838;28;20029;-74
2021/07/02 04:44:58;;;;;;;1.30;0.60;;;27.20;55.90;;;;;;4976113;28;20077;-79
2021/07/02 04:47:24;;;;;;;0.68;0.60;;;27.50;55.70;;;;;;4976124;28;20434;-78
2021/07/02 04:49:49;;;;;;;1.85;0.63;;;27.60;55.20;;;;;;4975878;28;20042;-76
2021/07/02 04:52:15;;;;;;;3.13;0.75;;;27.80;55.30;;;;;;4975158;28;20093;-75
2021/07/02 04:54:41;;;;;;;1.20;0.70;;;27.90;55.00;;;;;;4975441;28;20026;-74
2021/07/02 04:57:06;;;;;;;2.53;0.95;;;28.10;54.80;;;;;;4975267;28;20037;-76
2021/07/02 04:59:36;;;;;;;0.57;0.50;;;28.20;54.70;;;;;;4973998;28;20019;-74
2021/07/02 05:02:02;;;;;;;0.50;0.47;;;28.30;54.30;;;;;;4975268;28;20019;-71
2021/07/02 05:04:28;;;;;;;3.70;0.70;;;28.50;54.40;;;;;;4974428;28;20486;-70
2021/07/02 05:06:55;;;;;;;2.17;0.80;;;28.50;53.70;;;;;;4975179;28;20026;-71
2021/07/02 05:09:21;;;;;;;3.53;0.85;;;28.60;53.90;;;;;;4975388;28;20031;-71
2021/07/02 05:11:47;;;;;;;0.73;0.68;;;28.70;54.00;;;;;;4975432;28;20522;-70
2021/07/02 05:14:13;;;;;;;1.75;0.70;;;28.90;53.50;;;;;;4975454;28;20119;-70
2021/07/02 05:16:39;;;;;;;4.47;0.90;;;29.00;53.50;;;;;;4975336;28;20101;-72
2021/07/02 05:19:05;;;;;;;2.47;0.77;;;29.10;53.40;;;;;;4975578;28;20034;-73
2021/07/02 05:21:31;;;;;;;1.48;0.80;;;29.20;53.30;;;;;;4975437;28;20027;-72
2021/07/02 05:23:56;;;;;;;3.70;0.80;;;29.40;53.20;;;;;;4975267;28;20038;-73
2021/07/02 05:26:22;;;;;;;1.25;0.85;;;29.50;53.00;;;;;;4975508;28;20054;-73
2021/07/02 05:28:48;;;;;;;1.05;0.70;;;29.70;52.80;;;;;;4975130;28;20075;-73
2021/07/02 05:31:15;;;;;;;1.65;0.77;;;29.90;52.80;;;;;;4975518;28;20030;-72
2021/07/02 05:33:42;;;;;;;1.92;0.80;;;30.10;52.60;;;;;;4975097;28;20047;-70
2021/07/02 05:36:08;;;;;;;2.60;0.80;;;30.30;52.30;;;;;;4975340;28;20102;-70
2021/07/02 05:38:34;;;;;;;2.13;0.90;;;30.40;51.80;;;;;;4974922;28;20577;-70
2021/07/02 05:40:59;;;;;;;5.45;0.88;;;30.60;51.80;;;;;;4975290;28;20031;-73
2021/07/02 05:43:26;;;;;;;1.67;1.10;;;30.80;51.40;;;;;;4974899;28;20093;-71
2021/07/02 05:45:51;;;;;;;0.95;0.80;;;31.00;51.20;;;;;;4974969;28;20110;-71
2021/07/02 05:48:19;;;;;;;1.80;0.90;;;31.00;51.00;;;;;;4975026;28;20114;-71
2021/07/02 05:50:46;;;;;;;6.13;1.00;;;31.10;50.70;;;;;;4974921;28;20023;-71
2021/07/02 05:53:12;;;;;;;0.82;0.77;;;31.30;50.70;;;;;;4974683;28;20078;-71
2021/07/02 05:55:38;;;;;;;2.35;0.88;;;31.30;50.50;;;;;;4975001;28;20036;-71
2021/07/02 05:58:04;;;;;;;9.85;1.27;;;31.40;50.70;;;;;;4975029;28;20398;-76
2021/07/02 06:00:30;;;;;;;1.45;0.90;;;31.50;50.50;;;;;;4976670;28;20085;-76
2021/07/02 06:02:56;;;;;;;3.58;0.93;;;31.70;50.00;;;;;;4974579;28;20045;-77
2021/07/02 06:05:22;;;;;;;1.40;1.00;;;31.80;50.10;;;;;;4974669;28;20023;-77
2021/07/02 06:07:50;;;;;;;3.67;0.88;;;32.00;50.00;;;;;;4974570;28;20027;-77
2021/07/02 06:10:18;;;;;;;2.50;1.00;;;32.10;50.10;;;;;;4974485;28;20034;-74
2021/07/02 06:12:44;;;;;;;1.98;1.13;;;32.20;50.00;;;;;;4972125;28;20022;-74
2021/07/02 06:15:12;;;;;;;1.25;1.00;;;32.30;49.20;;;;;;4973795;28;20031;-76
2021/07/02 06:17:38;;;;;;;1.55;1.10;;;32.40;48.70;;;;;;4974014;28;20077;-72
2021/07/02 06:20:05;;;;;;;2.55;1.23;;;32.40;49.10;;;;;;4975023;28;20128;-72
2021/07/02 06:22:30;;;;;;;1.67;1.27;;;32.40;49.50;;;;;;4981097;28;20484;-72
2021/07/02 06:24:56;;;;;;;3.85;1.40;;;32.50;49.20;;;;;;4974698;28;20097;-74
2021/07/02 06:27:22;;;;;;;2.65;1.30;;;32.50;49.20;;;;;;4974117;28;20074;-73
2021/07/02 06:29:47;;;;;;;1.95;1.40;;;32.50;49.30;;;;;;4974030;28;20038;-72
2021/07/02 06:32:14;;;;;;;5.55;1.35;;;32.50;48.70;;;;;;4974323;28;20022;-73
2021/07/02 06:34:39;;;;;;;2.97;1.35;;;32.50;49.00;;;;;;4973825;28;20065;-72
2021/07/02 06:37:05;;;;;;;1.65;1.20;;;32.40;49.00;;;;;;4974122;28;20054;-72
2021/07/02 06:39:31;;;;;;;6.72;1.27;;;32.40;49.20;;;;;;4973919;28;20501;-72
2021/07/02 06:41:57;;;;;;;4.00;1.80;;;32.50;49.10;;;;;;4973948;28;20031;-75
2021/07/02 06:44:22;;;;;;;2.95;1.45;;;32.50;49.00;;;;;;4974042;28;20042;-75
2021/07/02 06:46:48;;;;;;;5.40;1.75;;;32.30;49.30;;;;;;4973724;28;20498;-75
2021/07/02 06:49:14;;;;;;;3.47;1.70;;;32.30;49.40;;;;;;4973935;28;20030;-75
2021/07/02 06:51:39;;;;;;;4.25;1.60;;;32.00;48.20;;;;;;4973380;28;20034;-75
2021/07/02 06:54:05;;;;;;;3.63;1.58;;;31.80;49.30;;;;;;4973314;28;20109;-76
2021/07/02 06:56:32;;;;;;;2.38;1.65;;;31.70;50.00;;;;;;4973626;28;20059;-75
2021/07/02 06:58:58;;;;;;;4.05;1.88;;;31.50;49.60;;;;;;4973007;28;20510;-77
2021/07/02 07:01:24;;;;;;;7.78;1.95;;;31.50;50.10;;;;;;4973589;28;20031;-78
2021/07/02 07:03:50;;;;;;;2.65;1.85;;;31.40;49.90;;;;;;4972888;28;20035;-77
2021/07/02 07:06:17;;;;;;;4.13;1.70;;;31.50;49.30;;;;;;4973170;28;20034;-82
2021/07/02 07:08:43;;;;;;;2.08;1.88;;;31.70;50.20;;;;;;4972817;28;20035;-73
2021/07/02 07:11:09;;;;;;;3.00;2.15;;;31.90;50.10;;;;;;4992671;28;20019;-77
2021/07/02 07:13:36;;;;;;;2.58;2.20;;;32.00;48.30;;;;;;4992645;28;20027;-78
2021/07/02 07:16:02;;;;;;;3.75;2.25;;;32.10;47.40;;;;;;4992799;28;20018;-74
2021/07/02 07:18:28;;;;;;;4.03;2.20;;;32.00;47.00;;;;;;4992756;28;20100;-76
2021/07/02 07:20:54;;;;;;;5.07;2.15;;;31.80;48.40;;;;;;4992598;28;20026;-75
2021/07/02 07:23:20;;;;;;;3.83;1.98;;;31.90;48.90;;;;;;4992956;28;20474;-74
2021/07/02 07:25:48;;;;;;;3.00;2.10;;;31.80;49.10;;;;;;4992558;28;20062;-77
2021/07/02 07:28:14;;;;;;;3.20;2.13;;;31.80;48.50;;;;;;4977211;28;20019;-78
2021/07/02 07:30:39;;;;;;;4.85;2.63;;;31.80;49.20;;;;;;4972523;28;20030;-78
2021/07/02 07:33:05;;;;;;;2.50;2.20;;;31.40;49.00;;;;;;4972861;28;20520;-78
2021/07/02 07:35:34;;;;;;;2.95;2.20;;;31.40;49.10;;;;;;4972863;28;20026;-78
2021/07/02 07:38:00;;;;;;;6.28;2.30;;;31.40;49.00;;;;;;4972949;28;20026;-79
2021/07/02 07:40:28;;;;;;;4.45;2.67;;;31.40;48.60;;;;;;4972942;28;20051;-78
2021/07/02 07:42:55;;;;;;;3.20;2.50;;;31.50;48.80;;;;;;4972920;28;20402;-78
2021/07/02 07:45:21;;;;;;;5.65;2.78;;;31.50;47.90;;;;;;4973364;28;20031;-77
2021/07/02 07:47:47;;;;;;;5.93;2.40;;;31.10;48.10;;;;;;4972995;28;20514;-78
2021/07/02 07:50:16;;;;;;;9.88;2.78;;;31.00;48.80;;;;;;4973080;28;20126;-78
2021/07/02 07:55:08;;;;;;;11.40;3.50;;;31.00;48.80;;;;;;4973050;28;20358;-74
2021/07/02 07:57:34;;;;;;;4.88;2.67;;;30.70;48.70;;;;;;4973423;28;20025;-73
2021/07/02 07:59:59;;;;;;;3.63;2.47;;;30.50;47.20;;;;;;4972850;28;20026;-73
2021/07/02 08:02:25;;;;;;;5.47;2.58;;;30.50;47.80;;;;;;4973219;28;20027;-74
2021/07/02 08:04:51;;;;;;;4.10;2.80;;;30.60;46.90;;;;;;4972683;28;20039;-73
2021/07/02 08:07:16;;;;;;;10.38;3.47;;;30.80;46.20;;;;;;4973177;28;20291;-73
2021/07/02 08:09:43;;;;;;;4.97;2.80;;;30.90;45.00;;;;;;4972758;28;20031;-73
2021/07/02 08:12:09;;;;;;;3.97;2.78;;;30.90;46.20;;;;;;4972913;28;20022;-73
2021/07/02 08:14:34;;;;;;;6.43;3.00;;;30.80;46.30;;;;;;4973085;28;20089;-73
2021/07/02 08:17:00;;;;;;;3.63;2.78;;;30.60;46.40;;;;;;4972774;28;20509;-73
2021/07/02 08:19:26;;;;;;;6.68;3.53;;;30.60;46.60;;;;;;4973045;28;20027;-73
2021/07/02 08:21:52;;;;;;;4.38;2.90;;;30.60;46.80;;;;;;4972966;28;20033;-73
2021/07/02 08:24:17;;;;;;;5.80;3.10;;;30.70;47.70;;;;;;4972616;28;20049;-73
2021/07/02 08:26:43;;;;;;;3.67;3.05;;;30.70;47.50;;;;;;4972763;28;20054;-73
2021/07/02 08:29:27;;;;;;;5.95;3.17;;;30.70;47.50;;;;;;4972697;28;20027;-73
2021/07/02 08:31:54;;;;;;;4.32;2.92;;;30.80;48.10;;;;;;4972389;28;20034;-73
2021/07/02 08:34:19;;;;;;;4.93;3.20;;;30.70;47.20;;;;;;4972508;28;20478;-73
2021/07/02 08:36:45;;;;;;;3.78;2.80;;;30.60;47.50;;;;;;4972459;28;20037;-73
2021/07/02 08:39:11;;;;;;;6.72;3.17;;;30.50;47.50;;;;;;4973428;28;20031;-74
2021/07/02 08:41:38;;;;;;;5.20;3.15;;;30.50;47.50;;;;;;4976308;28;20037;-74
2021/07/02 08:44:05;;;;;;;5.75;3.00;;;30.40;48.00;;;;;;4976312;28;20070;-74
2021/07/02 08:46:33;;;;;;;4.55;2.83;;;30.30;48.20;;;;;;4976182;28;20391;-74
2021/07/02 08:48:59;;;;;;;4.25;3.38;;;30.30;47.90;;;;;;4975827;28;20031;-74
2021/07/02 08:51:26;;;;;;;7.70;3.30;;;30.20;47.10;;;;;;4975885;28;20244;-74
2021/07/02 08:53:55;;;;;;;4.05;3.08;;;30.10;47.40;;;;;;4975387;28;20412;-74
2021/07/02 08:56:22;;;;;;;4.57;3.33;;;30.20;47.90;;;;;;4975879;28;20387;-75
2021/07/02 08:58:48;;;;;;;6.10;3.20;;;30.20;46.80;;;;;;4975628;28;20117;-74
2021/07/02 09:01:44;;;;;;;4.25;2.80;;;30.20;48.30;;;;;;4976141;28;20093;-74
2021/07/02 09:04:30;;;;;;;3.75;2.70;;;30.20;47.30;;;;;;4974893;28;20063;-75
2021/07/02 09:07:12;;;;;;;4.47;2.65;;;30.20;47.80;;;;;;4975793;28;20034;-75
2021/07/02 09:09:58;;;;;;;5.40;2.97;;;30.20;48.20;;;;;;4975628;28;20031;-74
2021/07/02 09:12:25;;;;;;;4.55;2.53;;;30.10;48.60;;;;;;4975978;28;20023;-75
2021/07/02 09:15:01;;;;;;;3.17;2.50;;;30.00;48.70;;;;;;4975500;28;20044;-74
2021/07/02 09:17:27;;;;;;;4.82;2.55;;;30.00;48.40;;;;;;4974345;28;20042;-73
2021/07/02 09:20:04;;;;;;;4.00;2.88;;;30.00;48.30;;;;;;4975688;28;20173;-73
2021/07/02 09:22:43;;;;;;;4.20;2.90;;;30.00;48.20;;;;;;4975801;28;20085;-73
2021/07/02 09:25:25;;;;;;;4.28;3.10;;;30.10;48.90;;;;;;4975700;28;20039;-73
2021/07/02 09:27:54;;;;;;;4.30;2.88;;;30.00;49.70;;;;;;4975286;28;20042;-72
2021/07/02 09:30:22;;;;;;;4.45;2.83;;;29.90;48.70;;;;;;4975530;28;20023;-73
2021/07/02 09:32:50;;;;;;;4.53;2.95;;;29.90;49.00;;;;;;4975230;28;20386;-72
2021/07/02 09:35:18;;;;;;;5.50;2.97;;;29.90;48.60;;;;;;4975217;28;20019;-73
2021/07/02 09:37:50;;;;;;;3.03;2.72;;;29.90;48.90;;;;;;4975122;28;20054;-73
2021/07/02 09:40:18;;;;;;;5.55;3.10;;;29.90;49.30;;;;;;4975041;28;20478;-72
2021/07/02 09:42:44;;;;;;;4.53;3.03;;;29.90;49.70;;;;;;4975244;28;20542;-72
2021/07/02 09:45:13;;;;;;;4.30;2.70;;;29.80;48.40;;;;;;4975040;28;20027;-73
2021/07/02 09:47:42;;;;;;;3.40;2.60;;;29.90;48.90;;;;;;4974916;28;20027;-73
2021/07/02 09:50:16;;;;;;;4.00;2.70;;;29.90;48.90;;;;;;4974774;28;20482;-73
2021/07/02 09:52:55;;;;;;;4.22;2.78;;;29.90;49.20;;;;;;4974247;28;20051;-72
2021/07/02 09:55:22;;;;;;;;;;;29.90;49.00;;;;;;4975288;28;20101;-73
2021/07/02 09:57:48;;;;;;;5.25;2.50;;;29.90;49.20;;;;;;4975034;28;20057;-73
2021/07/02 10:00:16;;;;;;;16.92;3.20;;;29.90;48.80;;;;;;4974894;28;20033;-75
2021/07/02 10:02:53;;;;;;;6.00;3.10;;;29.80;48.20;;;;;;4974497;28;20027;-73
2021/07/02 10:05:18;;;;;;;3.67;2.80;;;29.90;48.60;;;;;;4974658;28;20127;-73
2021/07/02 10:08:02;;;;;;;12.75;3.35;;;29.80;48.40;;;;;;4974796;28;20104;-73
2021/07/02 10:10:29;;;;;;;3.65;2.55;;;29.80;48.70;;;;;;4974879;28;20066;-72
2021/07/02 10:12:56;;;;;;;3.08;2.38;;;29.80;48.90;;;;;;4974483;28;20026;-73
2021/07/02 10:15:22;;;;;;;6.00;2.70;;;29.80;48.90;;;;;;4974398;28;20479;-73
2021/07/02 10:17:49;;;;;;;3.55;2.70;;;29.80;48.40;;;;;;4974513;28;20042;-72
2021/07/02 10:20:16;;;;;;;3.83;2.30;;;29.80;49.50;;;;;;4974361;28;20089;-73
2021/07/02 10:22:46;;;;;;;3.40;2.40;;;29.80;48.80;;;;;;4974272;28;20033;-73
2021/07/02 10:25:12;;;;;;;3.03;2.55;;;29.90;49.50;;;;;;4974578;28;20050;-74
2021/07/02 10:27:39;;;;;;;3.30;2.20;;;29.90;49.30;;;;;;4974383;28;20062;-74
2021/07/02 10:30:07;;;;;;;2.78;2.13;;;29.90;49.20;;;;;;4974050;28;20085;-74
2021/07/02 10:32:33;;;;;;;10.00;2.58;;;29.90;48.00;;;;;;4974296;28;20023;-74
2021/07/02 10:34:59;;;;;;;3.20;2.33;;;29.80;47.30;;;;;;4973860;28;20517;-74
2021/07/02 10:37:26;;;;;;;46.95;7.63;;;29.80;47.80;;;;;;4974017;28;20387;-74
2021/07/02 10:39:53;;;;;;;29.73;7.20;;;29.70;47.30;;;;;;4974185;28;20027;-74
2021/07/02 10:42:19;;;;;;;9.75;5.18;;;29.60;47.20;;;;;;4974272;28;20088;-74
2021/07/02 10:44:53;;;;;;;11.65;4.70;;;29.60;47.40;;;;;;4973533;28;20035;-73
2021/07/02 10:47:23;;;;;;;12.05;5.00;;;29.50;46.90;;;;;;4974114;28;20459;-73
2021/07/02 10:49:50;;;;;;;95.32;9.77;;;29.20;47.10;;;;;;4973604;28;20034;-74
2021/07/02 10:52:27;;;;;;;13.20;4.68;;;29.00;47.50;;;;;;4973927;28;20038;-73
2021/07/02 10:54:55;;;;;;;7.40;3.92;;;28.80;47.70;;;;;;4973891;28;20047;-74
2021/07/02 10:57:23;;;;;;;13.40;4.38;;;28.80;48.10;;;;;;4973891;28;20430;-73
2021/07/02 10:59:49;;;;;;;18.45;5.43;;;28.80;48.50;;;;;;4973563;28;20475;-74
2021/07/02 11:02:16;;;;;;;11.95;4.13;;;28.80;48.50;;;;;;4973502;28;20031;-74
2021/07/02 11:04:46;;;;;;;6.93;3.63;;;28.90;48.30;;;;;;4973814;28;20049;-74
2021/07/02 11:07:15;;;;;;;30.30;4.95;;;28.90;48.40;;;;;;4973550;28;20387;-74
2021/07/02 11:12:23;;;;;;;10.50;4.03;;;28.80;48.20;;;;;;4973516;28;20019;-74
2021/07/02 11:14:54;;;;;;;6.82;3.30;;;28.80;48.50;;;;;;4973329;28;20022;-74
2021/07/02 11:17:38;;;;;;;7.15;3.30;;;28.70;47.50;;;;;;4973354;28;20058;-74
2021/07/02 11:20:13;;;;;;;8.50;3.42;;;28.60;47.90;;;;;;4973260;28;20027;-73
2021/07/02 11:22:41;;;;;;;8.20;3.17;;;28.50;48.20;;;;;;4973614;28;20382;-73
2021/07/02 11:26:02;;;;;;;14.23;3.83;;;28.40;47.50;;;;;;4972867;28;20043;-74
2021/07/02 11:28:08;;;;;;;28.70;3.67;;;28.20;47.90;;;;;;4962808;28;20406;-74
2021/07/02 11:30:37;;;;;;;138.68;9.38;;;28.00;48.00;;;;;;4973554;28;20027;-74
2021/07/02 11:33:24;;;;;;;64.15;7.63;;;27.90;48.40;;;;;;4973107;28;20031;-73
2021/07/02 11:35:53;;;;;;;115.78;9.38;;;27.80;48.30;;;;;;4973406;28;20034;-73
2021/07/02 11:38:23;;;;;;;21.57;4.10;;;27.70;48.80;;;;;;4973478;28;20030;-74
2021/07/02 11:40:51;;;;;;;21.80;5.15;;;27.70;49.00;;;;;;4973234;28;20027;-74
2021/07/02 11:43:21;;;;;;;10.98;3.88;;;27.70;49.20;;;;;;4973074;28;20390;-74
2021/07/02 11:45:52;;;;;;;6.03;2.47;;;27.70;49.10;;;;;;4972914;28;20577;-74
2021/07/02 11:48:21;;;;;;;5.00;2.97;;;27.70;49.10;;;;;;4973095;28;20557;-73
2021/07/02 11:50:59;;;;;;;4.18;2.65;;;27.70;48.70;;;;;;4973064;28;20033;-74
2021/07/02 11:53:33;;;;;;;17.35;3.50;;;27.80;48.90;;;;;;4972839;28;20047;-74
2021/07/02 11:56:15;;;;;;;11.50;3.17;;;27.80;49.10;;;;;;4972762;28;20054;-74
2021/07/02 11:58:52;;;;;;;57.90;5.63;;;27.70;48.90;;;;;;4973227;28;20031;-74
2021/07/02 12:01:22;;;;;;;78.55;7.35;;;27.70;49.60;;;;;;4973052;28;20105;-74
2021/07/02 12:03:52;;;;;;;11.77;3.10;;;27.60;49.70;;;;;;4972740;28;20038;-73
2021/07/02 12:06:27;;;;;;;15.05;3.15;;;27.60;49.30;;;;;;4972748;28;20031;-74
2021/07/02 12:08:55;;;;;;;46.97;5.20;;;27.60;49.60;;;;;;4971360;28;20375;-74
2021/07/02 12:11:27;;;;;;;72.32;6.63;;;27.60;49.50;;;;;;4972675;28;20031;-74
2021/07/02 12:13:52;;;;;;;8.75;3.28;;;27.50;49.60;;;;;;4973243;28;20037;-74
2021/07/02 12:16:19;;;;;;;14.95;2.80;;;27.60;50.10;;;;;;4976441;28;20031;-74
2021/07/02 12:18:52;;;;;;;5.35;2.90;;;27.60;50.10;;;;;;4976634;28;20070;-73
2021/07/02 12:21:25;;;;;;;10.77;3.22;;;27.70;49.70;;;;;;4976410;28;20035;-74
2021/07/02 12:23:53;;;;;;;10.68;2.45;;;27.70;49.80;;;;;;4976325;28;20038;-74
2021/07/02 12:26:27;;;;;;;13.85;3.40;;;27.80;49.80;;;;;;4976338;28;20038;-74
2021/07/02 12:29:09;;;;;;;4.57;2.85;;;27.80;49.60;;;;;;4976591;28;20069;-74
2021/07/02 12:31:45;;;;;;;8.70;3.30;;;27.70;49.50;;;;;;4976200;28;20022;-74
2021/07/02 12:34:19;;;;;;;7.38;3.58;;;27.70;49.80;;;;;;4976600;28;20023;-74
2021/07/02 12:36:58;;;;;;;6.68;2.67;;;27.70;49.50;;;;;;4976320;28;20455;-74
2021/07/02 12:39:31;;;;;;;11.40;2.90;;;27.60;49.40;;;;;;4976604;28;20077;-74
2021/07/02 12:42:21;;;;;;;6.13;2.80;;;27.50;50.00;;;;;;4976174;28;20154;-74
2021/07/02 12:44:51;;;;;;;9.05;3.05;;;27.50;50.10;;;;;;4976144;28;20043;-74
2021/07/02 12:47:17;;;;;;;10.32;3.03;;;27.40;49.70;;;;;;4976409;28;20400;-74
2021/07/02 12:49:43;;;;;;;6.97;3.22;;;27.40;49.60;;;;;;4976357;28;20085;-74
2021/07/02 12:54:52;;;;;;;9.55;2.85;;;27.50;50.10;;;;;;4976437;28;20510;-74
2021/07/02 12:57:22;;;;;;;5.25;2.55;;;27.50;50.00;;;;;;4976082;28;20030;-74
2021/07/02 13:00:08;;;;;;;4.97;2.58;;;27.50;50.40;;;;;;4975911;28;20106;-74
2021/07/02 13:02:35;;;;;;;6.93;2.72;;;27.60;50.10;;;;;;4975986;28;20031;-74
2021/07/02 13:05:10;;;;;;;6.78;2.53;;;27.60;50.10;;;;;;4975900;28;20084;-74
2021/07/02 13:07:53;;;;;;;4.57;2.33;;;27.50;49.80;;;;;;4976147;28;20030;-74
2021/07/02 13:10:50;;;;;;;5.80;2.78;;;27.40;49.20;;;;;;4975685;28;20034;-74
2021/07/02 13:13:18;;;;;;;5.90;3.00;;;27.30;49.80;;;;;;4975698;28;20058;-74
2021/07/02 13:15:47;;;;;;;5.88;2.83;;;27.30;49.90;;;;;;4976106;28;20375;-74
2021/07/02 13:18:41;;;;;;;6.05;2.78;;;27.30;50.10;;;;;;4975603;28;20031;-74
2021/07/02 13:21:11;;;;;;;5.07;2.40;;;27.20;49.60;;;;;;4975537;28;20429;-74
2021/07/02 13:23:39;;;;;;;4.28;2.58;;;27.20;49.20;;;;;;4975391;28;20042;-74
2021/07/02 13:26:23;;;;;;;3.88;2.40;;;27.10;49.40;;;;;;4974876;28;20442;-74
2021/07/02 13:28:50;;;;;;;7.22;2.70;;;27.00;49.00;;;;;;4975512;28;20023;-74
2021/07/02 13:31:22;;;;;;;8.93;2.95;;;27.00;49.60;;;;;;4975239;28;20070;-74